createdAt,value
2023-05-22T00:01:44.432Z,13.90
2023-05-22T00:04:14.037Z,12.90
2023-05-22T00:06:43.910Z,12.68
2023-05-22T00:09:10.592Z,13.65
2023-05-22T00:11:37.231Z,12.48
2023-05-22T00:14:03.898Z,12.07
2023-05-22T00:16:30.724Z,13.20
2023-05-22T00:18:57.709Z,13.18
2023-05-22T00:21:24.957Z,12.52
2023-05-22T00:23:51.571Z,12.48
2023-05-22T00:26:18.184Z,12.05
2023-05-22T00:28:44.846Z,12.52
2023-05-22T00:31:11.640Z,12.93
2023-05-22T00:33:38.357Z,14.65
2023-05-22T00:36:05.525Z,13.20
2023-05-22T00:38:37.602Z,15.80
2023-05-22T00:41:06.059Z,15.43
2023-05-22T00:43:33.893Z,15.00
2023-05-22T00:46:00.840Z,14.05
2023-05-22T00:48:27.640Z,15.50
2023-05-22T00:50:55.446Z,13.13
2023-05-22T00:53:24.292Z,14.10
2023-05-22T00:55:51.830Z,13.23
2023-05-22T00:58:19.266Z,13.30
2023-05-22T01:00:46.944Z,13.70
2023-05-22T01:03:14.851Z,12.25
2023-05-22T01:05:42.214Z,13.10
2023-05-22T01:08:09.360Z,12.27
2023-05-22T01:10:39.466Z,12.05
2023-05-22T01:13:51.171Z,11.82
2023-05-22T01:16:29.865Z,11.20
2023-05-22T01:19:23.424Z,11.15
2023-05-22T01:22:08.321Z,11.88
2023-05-22T01:25:00.687Z,12.73
2023-05-22T01:27:48.842Z,13.82
2023-05-22T01:30:34.060Z,14.15
2023-05-22T01:33:03.786Z,14.95
2023-05-22T01:35:32.658Z,14.15
2023-05-22T01:38:00.734Z,13.00
2023-05-22T01:40:28.453Z,14.32
2023-05-22T01:42:55.542Z,13.48
2023-05-22T01:45:22.288Z,13.65
2023-05-22T01:47:49.147Z,15.35
2023-05-22T01:50:16.210Z,14.98
2023-05-22T01:53:13.774Z,12.60
2023-05-22T01:55:46.235Z,12.73
2023-05-22T01:58:17.655Z,13.57
2023-05-22T02:00:46.336Z,13.35
2023-05-22T02:03:19.384Z,13.48
2023-05-22T02:05:49.483Z,13.30
2023-05-22T02:08:17.020Z,14.07
2023-05-22T02:10:45.879Z,13.13
2023-05-22T02:13:13.040Z,14.13
2023-05-22T02:15:40.101Z,12.98
2023-05-22T02:18:15.340Z,13.30
2023-05-22T02:20:42.305Z,14.18
2023-05-22T02:23:09.327Z,15.10
2023-05-22T02:25:36.151Z,16.77
2023-05-22T02:28:02.873Z,15.77
2023-05-22T02:30:29.564Z,15.65
2023-05-22T02:32:58.369Z,15.20
2023-05-22T02:35:25.006Z,15.80
2023-05-22T02:37:51.776Z,15.40
2023-05-22T02:40:18.401Z,15.98
2023-05-22T02:42:45.025Z,16.80
2023-05-22T02:45:11.754Z,16.88
2023-05-22T02:47:38.440Z,17.33
2023-05-22T02:50:05.573Z,18.92
2023-05-22T02:52:32.147Z,16.80
2023-05-22T02:54:58.852Z,17.55
2023-05-22T02:57:25.467Z,17.88
2023-05-22T02:59:52.662Z,20.50
2023-05-22T03:02:19.892Z,21.25
2023-05-22T03:04:46.691Z,20.35
2023-05-22T03:07:13.365Z,18.92
2023-05-22T03:09:40.000Z,18.17
2023-05-22T03:12:09.361Z,18.25
2023-05-22T03:14:36.662Z,19.05
2023-05-22T03:17:03.779Z,22.02
2023-05-22T03:19:30.548Z,21.38
2023-05-22T03:21:57.596Z,20.02
2023-05-22T03:24:24.198Z,20.13
2023-05-22T03:26:50.991Z,19.85
2023-05-22T03:29:17.788Z,19.65
2023-05-22T03:31:44.517Z,19.23
2023-05-22T03:34:11.252Z,19.13
2023-05-22T03:36:37.933Z,19.50
2023-05-22T03:39:04.949Z,19.77
2023-05-22T03:41:31.556Z,19.67
2023-05-22T03:43:58.457Z,20.52
2023-05-22T03:46:25.302Z,20.33
2023-05-22T03:48:52.070Z,20.55
2023-05-22T03:51:20.262Z,20.25
2023-05-22T03:53:47.261Z,20.55
2023-05-22T03:56:13.883Z,20.27
2023-05-22T03:58:40.946Z,20.40
2023-05-22T04:01:09.906Z,18.67
2023-05-22T04:03:37.651Z,17.85
2023-05-22T04:06:05.698Z,18.15
2023-05-22T04:08:32.475Z,17.02
2023-05-22T04:10:59.164Z,17.33
2023-05-22T04:13:27.435Z,16.70
2023-05-22T04:15:54.185Z,16.60
2023-05-22T04:18:20.899Z,17.50
2023-05-22T04:20:47.523Z,17.15
2023-05-22T04:23:14.171Z,17.27
2023-05-22T04:25:40.839Z,16.95
2023-05-22T04:28:09.307Z,15.75
2023-05-22T04:30:40.434Z,13.93
2023-05-22T04:33:08.489Z,17.65
2023-05-22T04:35:35.472Z,16.88
2023-05-22T04:38:02.260Z,15.88
2023-05-22T04:40:30.359Z,15.02
2023-05-22T04:42:59.929Z,14.63
2023-05-22T04:45:28.934Z,14.55
2023-05-22T04:47:56.544Z,15.02
2023-05-22T04:50:24.038Z,14.10
2023-05-22T04:52:50.979Z,12.48
2023-05-22T04:55:19.176Z,12.20
2023-05-22T04:57:46.090Z,12.63
2023-05-22T05:00:14.500Z,12.63
2023-05-22T05:02:41.398Z,12.18
2023-05-22T05:05:08.536Z,11.45
2023-05-22T05:07:39.364Z,12.82
2023-05-22T05:10:07.444Z,10.55
2023-05-22T05:12:34.422Z,10.82
2023-05-22T05:15:01.547Z,10.88
2023-05-22T05:17:28.785Z,11.18
2023-05-22T05:19:55.552Z,13.02
2023-05-22T05:22:22.216Z,10.48
2023-05-22T05:24:48.915Z,10.45
2023-05-22T05:27:16.050Z,11.10
2023-05-22T05:29:42.683Z,10.73
2023-05-22T05:32:11.572Z,9.90
2023-05-22T05:34:38.496Z,11.65
2023-05-22T05:37:05.841Z,10.13
2023-05-22T05:39:32.476Z,11.57
2023-05-22T05:42:00.230Z,9.88
2023-05-22T05:44:27.091Z,10.32
2023-05-22T05:46:53.875Z,9.65
2023-05-22T05:49:20.513Z,9.15
2023-05-22T05:51:47.144Z,9.10
2023-05-22T05:54:13.785Z,10.35
2023-05-22T05:56:40.748Z,11.52
2023-05-22T05:59:08.054Z,10.82
2023-05-22T06:01:35.384Z,12.18
2023-05-22T06:04:03.538Z,12.20
2023-05-22T06:06:35.749Z,14.30
2023-05-22T06:09:05.440Z,14.15
2023-05-22T06:11:33.231Z,14.45
2023-05-22T06:14:01.377Z,14.77
2023-05-22T06:16:28.371Z,15.05
2023-05-22T06:18:57.160Z,16.13
2023-05-22T06:21:24.544Z,15.50
2023-05-22T06:23:51.701Z,17.77
2023-05-22T06:26:18.842Z,16.40
2023-05-22T06:28:48.200Z,20.08
2023-05-22T06:31:14.813Z,18.40
2023-05-22T06:33:43.401Z,18.77
2023-05-22T06:36:11.543Z,19.70
2023-05-22T06:38:39.189Z,20.73
2023-05-22T06:41:06.522Z,15.57
2023-05-22T06:43:33.297Z,13.85
2023-05-22T06:46:00.202Z,16.20
2023-05-22T06:48:26.850Z,16.63
2023-05-22T06:50:53.495Z,16.98
2023-05-22T06:53:20.353Z,15.27
2023-05-22T06:55:47.042Z,15.07
2023-05-22T06:58:13.803Z,14.15
2023-05-22T07:00:40.604Z,14.27
2023-05-22T07:03:07.632Z,13.85
2023-05-22T07:05:34.329Z,14.15
2023-05-22T07:08:01.638Z,13.57
2023-05-22T07:10:28.543Z,12.93
2023-05-22T07:12:55.279Z,12.10
2023-05-22T07:15:22.077Z,11.15
2023-05-22T07:17:49.724Z,12.65
2023-05-22T07:20:17.800Z,11.45
2023-05-22T07:22:44.484Z,11.38
2023-05-22T07:25:11.295Z,11.52
2023-05-22T07:27:38.003Z,10.40
2023-05-22T07:30:05.221Z,10.60
2023-05-22T07:32:31.847Z,10.35
2023-05-22T07:34:58.436Z,10.13
2023-05-22T07:37:25.052Z,9.82
2023-05-22T07:39:51.669Z,9.73
2023-05-22T07:42:18.374Z,10.43
2023-05-22T07:44:45.023Z,11.20
2023-05-22T07:47:11.678Z,11.40
2023-05-22T07:49:38.277Z,10.48
2023-05-22T07:52:05.199Z,12.57
2023-05-22T07:54:31.823Z,11.52
2023-05-22T07:56:58.455Z,12.48
2023-05-22T07:59:25.597Z,13.48
2023-05-22T08:01:52.357Z,12.02
2023-05-22T08:04:19.240Z,16.05
2023-05-22T08:06:46.392Z,13.48
2023-05-22T08:09:13.472Z,13.57
2023-05-22T08:11:42.269Z,15.32
2023-05-22T08:14:09.100Z,14.52
2023-05-22T08:16:35.842Z,14.57
2023-05-22T08:19:03.266Z,13.90
2023-05-22T08:21:30.033Z,13.43
2023-05-22T08:23:56.634Z,14.75
2023-05-22T08:26:23.271Z,14.98
2023-05-22T08:28:50.019Z,15.35
2023-05-22T08:31:16.676Z,16.42
2023-05-22T08:33:43.338Z,16.90
2023-05-22T08:36:10.021Z,16.55
2023-05-22T08:38:37.152Z,15.48
2023-05-22T08:41:06.092Z,15.40
2023-05-22T08:43:32.684Z,14.02
2023-05-22T08:46:09.395Z,16.05
2023-05-22T08:48:37.286Z,15.07
2023-05-22T08:51:05.996Z,14.75
2023-05-22T08:53:37.146Z,14.15
2023-05-22T08:56:06.739Z,14.15
2023-05-22T08:58:38.253Z,13.82
2023-05-22T09:01:07.690Z,14.05
2023-05-22T09:03:36.019Z,14.10
2023-05-22T09:06:03.323Z,12.43
2023-05-22T09:08:30.113Z,13.90
2023-05-22T09:10:56.760Z,13.00
2023-05-22T09:13:28.602Z,12.90
2023-05-22T09:16:00.712Z,13.27
2023-05-22T09:18:29.128Z,11.52
2023-05-22T09:20:58.045Z,12.65
2023-05-22T09:23:28.282Z,11.50
2023-05-22T09:26:00.265Z,11.07
2023-05-22T09:28:27.789Z,12.00
2023-05-22T09:30:55.598Z,10.63
2023-05-22T09:33:23.447Z,10.73
2023-05-22T09:35:54.190Z,9.85
2023-05-22T09:38:28.675Z,9.85
2023-05-22T09:40:56.428Z,10.30
2023-05-22T09:43:25.403Z,9.15
2023-05-22T09:46:02.064Z,9.43
2023-05-22T09:48:29.043Z,9.25
2023-05-22T09:50:59.777Z,9.77
2023-05-22T09:53:29.835Z,9.20
2023-05-22T09:55:58.195Z,8.63
2023-05-22T09:58:27.294Z,9.20
2023-05-22T10:00:56.370Z,9.40
2023-05-22T10:03:24.597Z,9.23
2023-05-22T10:05:54.421Z,9.70
2023-05-22T10:08:28.233Z,10.05
2023-05-22T10:10:55.392Z,9.55
2023-05-22T10:13:22.281Z,10.50
2023-05-22T10:15:49.937Z,10.00
2023-05-22T10:18:17.531Z,9.63
2023-05-22T10:20:46.891Z,10.10
2023-05-22T10:23:16.573Z,9.82
2023-05-22T10:25:44.719Z,10.15
2023-05-22T10:28:14.297Z,9.90
2023-05-22T10:30:41.233Z,9.30
2023-05-22T10:33:36.658Z,9.25
2023-05-22T10:36:23.126Z,10.52
2023-05-22T10:39:01.564Z,9.48
2023-05-22T10:41:28.543Z,10.30
2023-05-22T10:43:57.415Z,9.55
2023-05-22T10:46:24.481Z,9.18
2023-05-22T10:48:54.264Z,9.18
2023-05-22T10:51:24.757Z,9.60
2023-05-22T10:53:55.599Z,9.52
2023-05-22T10:56:25.146Z,9.73
2023-05-22T10:58:57.740Z,8.80
2023-05-22T11:01:27.427Z,8.95
2023-05-22T11:03:55.258Z,9.60
2023-05-22T11:06:37.059Z,9.50
2023-05-22T11:09:31.082Z,9.15
2023-05-22T11:12:17.802Z,9.80
2023-05-22T11:14:55.661Z,9.23
2023-05-22T11:17:29.396Z,9.25
2023-05-22T11:22:34.322Z,9.85
2023-05-22T11:25:05.147Z,8.30
2023-05-22T11:27:31.997Z,9.40
2023-05-22T11:30:01.363Z,9.02
2023-05-22T11:32:28.364Z,10.05
2023-05-22T11:34:57.147Z,8.88
2023-05-22T11:37:24.111Z,8.70
2023-05-22T11:40:04.753Z,9.90
2023-05-22T11:42:31.537Z,9.82
2023-05-22T11:44:58.369Z,9.23
2023-05-22T11:47:26.867Z,9.57
2023-05-22T11:49:54.189Z,10.13
2023-05-22T11:52:21.106Z,10.75
2023-05-22T11:54:48.407Z,9.52
2023-05-22T11:57:15.504Z,10.15
2023-05-22T11:59:48.781Z,9.90
2023-05-22T12:02:19.126Z,8.93
2023-05-22T12:04:46.393Z,9.80
2023-05-22T12:07:13.569Z,9.88
2023-05-22T12:09:40.882Z,9.50
2023-05-22T12:12:11.622Z,10.77
2023-05-22T12:14:38.609Z,9.43
2023-05-22T12:17:06.429Z,9.60
2023-05-22T12:19:33.291Z,9.57
2023-05-22T12:21:59.873Z,9.10
2023-05-22T12:24:26.573Z,9.57
2023-05-22T12:26:53.933Z,10.52
2023-05-22T12:29:23.786Z,10.10
2023-05-22T12:31:51.276Z,10.07
2023-05-22T12:34:21.227Z,9.52
2023-05-22T12:36:48.079Z,10.27
2023-05-22T12:39:18.679Z,10.00
2023-05-22T12:41:45.950Z,10.35
2023-05-22T12:44:14.973Z,10.32
2023-05-22T12:46:41.967Z,9.43
2023-05-22T12:49:09.089Z,9.80
2023-05-22T12:51:35.766Z,10.10
2023-05-22T12:54:03.660Z,10.60
2023-05-22T12:56:31.448Z,10.50
2023-05-22T12:58:58.725Z,10.18
2023-05-22T13:01:26.305Z,9.90
2023-05-22T13:03:53.073Z,9.70
2023-05-22T13:06:20.621Z,10.40
2023-05-22T13:08:47.324Z,9.43
2023-05-22T13:11:14.042Z,9.77
2023-05-22T13:13:40.733Z,9.30
2023-05-22T13:16:07.428Z,9.30
2023-05-22T13:18:34.226Z,10.00
2023-05-22T13:21:00.918Z,9.77
2023-05-22T13:23:27.502Z,9.32
2023-05-22T13:25:54.169Z,9.05
2023-05-22T13:28:21.079Z,9.38
2023-05-22T13:30:47.639Z,8.65
2023-05-22T13:33:14.314Z,9.18
2023-05-22T13:35:41.172Z,8.82
2023-05-22T13:38:07.946Z,8.45
2023-05-22T13:40:34.584Z,8.07
2023-05-22T13:43:01.236Z,8.18
2023-05-22T13:45:27.921Z,8.20
2023-05-22T13:47:54.596Z,8.30
2023-05-22T13:50:21.240Z,8.30
2023-05-22T13:52:47.926Z,7.95
2023-05-22T13:55:14.585Z,7.95
2023-05-22T13:57:41.343Z,8.20
2023-05-22T14:00:09.439Z,7.32
2023-05-22T14:02:36.117Z,7.75
2023-05-22T14:05:03.074Z,7.50
2023-05-22T14:07:29.653Z,9.00
2023-05-22T14:09:57.144Z,7.68
2023-05-22T14:12:25.179Z,7.93
2023-05-22T14:14:51.794Z,8.10
2023-05-22T14:17:18.389Z,8.05
2023-05-22T14:19:45.084Z,7.85
2023-05-22T14:22:11.803Z,8.02
2023-05-22T14:24:38.425Z,7.80
2023-05-22T14:27:05.354Z,8.23
2023-05-22T14:29:31.955Z,8.52
2023-05-22T14:32:04.309Z,8.35
2023-05-22T14:34:31.555Z,7.80
2023-05-22T14:36:58.563Z,8.00
2023-05-22T14:39:25.833Z,8.35
2023-05-22T14:41:55.548Z,7.15
2023-05-22T14:44:24.936Z,7.72
2023-05-22T14:46:53.541Z,7.30
2023-05-22T14:49:20.417Z,7.20
2023-05-22T14:51:48.361Z,7.63
2023-05-22T14:54:19.185Z,8.32
2023-05-22T14:56:46.362Z,7.20
2023-05-22T14:59:14.357Z,7.32
2023-05-22T15:01:41.503Z,7.50
2023-05-22T15:04:08.882Z,7.40
2023-05-22T15:06:36.227Z,7.85
2023-05-22T15:09:03.806Z,8.05
2023-05-22T15:11:30.427Z,7.60
2023-05-22T15:13:57.121Z,7.50
2023-05-22T15:16:25.703Z,6.93
2023-05-22T15:18:52.540Z,7.60
2023-05-22T15:21:19.551Z,7.88
2023-05-22T15:23:46.349Z,7.30
2023-05-22T15:26:12.932Z,7.50
2023-05-22T15:28:39.581Z,7.95
2023-05-22T15:31:06.527Z,7.70
2023-05-22T15:33:34.381Z,7.88
2023-05-22T15:36:01.046Z,8.73
2023-05-22T15:38:28.370Z,8.73
2023-05-22T15:40:55.049Z,9.00
2023-05-22T15:43:21.967Z,8.20
2023-05-22T15:45:49.484Z,7.97
2023-05-22T15:48:16.874Z,8.35
2023-05-22T15:50:43.970Z,8.23
2023-05-22T15:53:10.699Z,8.43
2023-05-22T15:55:37.591Z,9.10
2023-05-22T15:58:06.575Z,8.95
2023-05-22T16:00:38.680Z,8.43
2023-05-22T16:03:08.898Z,9.30
2023-05-22T16:05:40.400Z,9.32
2023-05-22T16:08:10.475Z,9.48
2023-05-22T16:10:37.376Z,9.98
2023-05-22T16:13:07.888Z,10.05
2023-05-22T16:15:34.598Z,9.48
2023-05-22T16:18:01.357Z,10.02
2023-05-22T16:20:28.075Z,9.93
2023-05-22T16:22:54.735Z,8.85
2023-05-22T16:25:21.570Z,9.48
2023-05-22T16:27:48.228Z,10.05
2023-05-22T16:30:17.092Z,9.07
2023-05-22T16:32:48.055Z,9.57
2023-05-22T16:35:15.452Z,9.52
2023-05-22T16:37:42.173Z,9.40
2023-05-22T16:40:11.890Z,9.30
2023-05-22T16:42:38.544Z,9.35
2023-05-22T16:45:06.587Z,9.15
2023-05-22T16:47:33.282Z,9.68
2023-05-22T16:50:00.167Z,9.40
2023-05-22T16:52:26.912Z,9.85
2023-05-22T16:54:54.094Z,9.70
2023-05-22T16:57:21.358Z,9.15
2023-05-22T16:59:48.156Z,9.57
2023-05-22T17:02:15.008Z,9.40
2023-05-22T17:04:41.641Z,9.13
2023-05-22T17:07:08.232Z,9.73
2023-05-22T17:09:34.912Z,10.55
2023-05-22T17:12:01.525Z,10.00
2023-05-22T17:14:28.134Z,9.60
2023-05-22T17:16:55.804Z,9.80
2023-05-22T17:19:22.989Z,10.13
2023-05-22T17:21:49.769Z,9.48
2023-05-22T17:24:16.466Z,9.68
2023-05-22T17:26:44.507Z,9.20
2023-05-22T17:29:11.158Z,9.70
2023-05-22T17:31:39.501Z,10.07
2023-05-22T17:34:06.524Z,10.00
2023-05-22T17:36:33.387Z,10.02
2023-05-22T17:39:00.114Z,10.15
2023-05-22T17:41:26.749Z,9.25
2023-05-22T17:43:55.907Z,10.48
2023-05-22T17:46:22.951Z,9.90
2023-05-22T17:48:49.657Z,10.80
2023-05-22T17:51:16.339Z,11.02
2023-05-22T17:53:43.106Z,11.23
2023-05-22T17:56:09.842Z,10.55
2023-05-22T17:58:36.482Z,11.45
2023-05-22T18:01:03.259Z,11.13
2023-05-22T18:03:30.832Z,11.30
2023-05-22T18:05:57.756Z,12.32
2023-05-22T18:08:24.480Z,11.65
2023-05-22T18:10:51.385Z,10.63
2023-05-22T18:13:19.523Z,12.00
2023-05-22T18:15:46.206Z,11.93
2023-05-22T18:18:13.182Z,11.82
2023-05-22T18:20:40.282Z,11.32
2023-05-22T18:23:07.180Z,12.35
2023-05-22T18:25:33.819Z,13.00
2023-05-22T18:28:00.586Z,11.52
2023-05-22T18:30:27.208Z,12.02
2023-05-22T18:32:53.906Z,12.15
2023-05-22T18:35:20.696Z,12.63
2023-05-22T18:37:47.313Z,12.98
2023-05-22T18:40:13.960Z,12.95
2023-05-22T18:42:40.718Z,12.68
2023-05-22T18:45:08.055Z,12.65
2023-05-22T18:47:34.865Z,12.52
2023-05-22T18:50:01.568Z,12.48
2023-05-22T18:52:28.211Z,10.90
2023-05-22T18:54:54.907Z,11.70
2023-05-22T18:57:21.701Z,10.15
2023-05-22T18:59:48.382Z,12.27
2023-05-22T19:02:16.881Z,13.40
2023-05-22T19:04:43.817Z,11.07
2023-05-22T19:07:10.649Z,10.60
2023-05-22T19:09:37.646Z,11.32
2023-05-22T19:12:04.919Z,11.18
2023-05-22T19:14:31.799Z,11.10
2023-05-22T19:17:00.295Z,11.63
2023-05-22T19:19:27.583Z,11.10
2023-05-22T19:21:54.382Z,10.85
2023-05-22T19:24:21.159Z,11.95
2023-05-22T19:26:47.859Z,12.40
2023-05-22T19:29:15.778Z,12.98
2023-05-22T19:31:42.648Z,13.73
2023-05-22T19:34:09.311Z,13.77
2023-05-22T19:36:36.282Z,17.13
2023-05-22T19:39:04.015Z,19.83
2023-05-22T19:41:30.617Z,22.23
2023-05-22T19:43:57.472Z,22.73
2023-05-22T19:46:24.432Z,26.77
2023-05-22T19:48:51.064Z,30.25
2023-05-22T19:51:17.715Z,31.05
2023-05-22T19:53:44.496Z,34.63
2023-05-22T19:56:11.502Z,41.58
2023-05-22T19:58:38.154Z,50.35
2023-05-22T20:01:04.821Z,64.18
2023-05-22T20:03:31.616Z,67.80
2023-05-22T20:05:58.325Z,70.57
2023-05-22T20:08:25.567Z,67.82
2023-05-22T20:10:52.588Z,62.70
2023-05-22T20:13:19.176Z,55.63
2023-05-22T20:15:47.837Z,45.25
2023-05-22T20:18:14.626Z,38.13
2023-05-22T20:20:41.463Z,29.88
2023-05-22T20:23:08.190Z,21.50
2023-05-22T20:25:35.032Z,15.35
2023-05-22T20:28:03.810Z,13.70
2023-05-22T20:30:31.102Z,13.18
2023-05-22T20:32:57.836Z,14.00
2023-05-22T20:35:26.387Z,12.40
2023-05-22T20:37:53.432Z,13.10
2023-05-22T20:40:20.366Z,13.15
2023-05-22T20:42:47.515Z,16.17
2023-05-22T20:45:15.988Z,19.50
2023-05-22T20:47:43.153Z,21.00
2023-05-22T20:50:10.198Z,22.35
2023-05-22T20:52:39.888Z,25.95
2023-05-22T20:55:06.947Z,28.48
2023-05-22T20:57:34.349Z,31.83
2023-05-22T21:00:01.530Z,33.03
2023-05-22T21:02:28.254Z,31.90
2023-05-22T21:04:54.994Z,30.50
2023-05-22T21:07:21.686Z,29.25
2023-05-22T21:09:48.268Z,29.30
2023-05-22T21:12:14.900Z,28.85
2023-05-22T21:14:43.466Z,27.45
2023-05-22T21:17:10.473Z,26.00
2023-05-22T21:19:37.172Z,22.80
2023-05-22T21:22:04.034Z,19.13
2023-05-22T21:24:32.530Z,17.42
2023-05-22T21:26:59.686Z,16.35
2023-05-22T21:29:26.555Z,14.60
2023-05-22T21:31:53.295Z,13.68
2023-05-22T21:34:19.997Z,13.35
2023-05-22T21:36:46.719Z,13.20
2023-05-22T21:39:13.363Z,13.95
2023-05-22T21:41:40.025Z,13.63
2023-05-22T21:44:07.910Z,13.00
2023-05-22T21:46:34.765Z,11.70
2023-05-22T21:49:03.314Z,12.15
2023-05-22T21:51:29.975Z,12.15
2023-05-22T21:53:56.595Z,12.25
2023-05-22T21:56:23.278Z,12.63
2023-05-22T21:58:49.918Z,12.02
2023-05-22T22:01:16.615Z,12.50
2023-05-22T22:03:43.368Z,13.27
2023-05-22T22:06:10.303Z,13.48
2023-05-22T22:08:38.240Z,12.80
2023-05-22T22:11:04.913Z,13.73
2023-05-22T22:13:31.649Z,12.70
2023-05-22T22:15:59.374Z,13.10
2023-05-22T22:18:26.104Z,15.52
2023-05-22T22:20:54.150Z,15.18
2023-05-22T22:23:21.947Z,14.35
2023-05-22T22:25:48.996Z,14.23
2023-05-22T22:28:15.919Z,14.70
2023-05-22T22:30:42.649Z,15.00
2023-05-22T22:33:09.448Z,14.60
2023-05-22T22:35:36.298Z,14.82
2023-05-22T22:38:03.231Z,16.73
2023-05-22T22:40:29.839Z,14.23
2023-05-22T22:42:56.436Z,15.63
2023-05-22T22:45:23.036Z,17.15
2023-05-22T22:47:49.673Z,17.25
2023-05-22T22:50:16.807Z,16.90
2023-05-22T22:52:46.275Z,18.17
2023-05-22T22:55:13.535Z,18.48
2023-05-22T22:57:43.355Z,20.55
2023-05-22T23:00:13.206Z,21.55
2023-05-22T23:02:40.341Z,23.80
2023-05-22T23:05:07.772Z,26.10
2023-05-22T23:07:34.673Z,26.05
2023-05-22T23:10:01.240Z,29.25
2023-05-22T23:12:27.899Z,32.10
2023-05-22T23:14:55.473Z,35.55
2023-05-22T23:17:22.062Z,43.50
2023-05-22T23:19:48.617Z,50.20
2023-05-22T23:22:15.246Z,59.08
2023-05-22T23:24:41.824Z,71.13
2023-05-22T23:27:08.396Z,74.28
2023-05-22T23:29:34.988Z,79.57
2023-05-22T23:32:01.650Z,89.88
2023-05-22T23:34:28.255Z,103.88
2023-05-22T23:36:54.912Z,113.85
2023-05-22T23:39:21.539Z,130.68
2023-05-22T23:41:48.187Z,131.70
2023-05-22T23:44:14.855Z,130.43
2023-05-22T23:46:42.532Z,128.65
2023-05-22T23:49:09.231Z,136.63
2023-05-22T23:51:36.657Z,139.63
2023-05-22T23:54:03.546Z,174.07
2023-05-22T23:56:30.156Z,192.90
2023-05-22T23:58:56.799Z,195.65
